METAR Data
IDs: Format: Raw Decoded Include TAF

Data at: 2101 UTC 01 Dec 2021

KCDR 012053Z AUTO 30011KT 10SM CLR 22/M01 A2991 RMK AO2 SLP131 T02171006 56017